createdAt,value
2022-11-26T00:04:26.520Z,7.10
2022-11-26T00:09:54.094Z,7.10
2022-11-26T00:12:45.534Z,7.10
2022-11-26T00:18:05.849Z,7.10
2022-11-26T00:20:37.689Z,7.00
2022-11-26T00:23:36.959Z,7.10
2022-11-26T00:26:35.948Z,7.00
2022-11-26T00:29:14.668Z,7.20
2022-11-26T00:31:52.926Z,7.20
2022-11-26T00:34:29.988Z,7.20
2022-11-26T00:37:14.345Z,7.20
2022-11-26T00:39:47.739Z,7.20
2022-11-26T00:42:28.218Z,7.10
2022-11-26T00:45:23.608Z,7.10
2022-11-26T00:48:11.847Z,7.10
2022-11-26T00:50:47.364Z,7.10
2022-11-26T00:53:47.818Z,7.10
2022-11-26T00:56:19.243Z,7.10
2022-11-26T00:59:04.967Z,7.20
2022-11-26T01:04:38.954Z,7.30
2022-11-26T01:07:14.802Z,7.30
2022-11-26T01:09:47.824Z,7.30
2022-11-26T01:12:20.474Z,7.30
2022-11-26T01:14:57.265Z,7.30
2022-11-26T01:17:28.787Z,7.40
2022-11-26T01:20:07.363Z,7.40
2022-11-26T01:22:42.164Z,7.40
2022-11-26T01:28:20.779Z,7.30
2022-11-26T01:30:52.622Z,7.30
2022-11-26T01:33:25.259Z,7.30
2022-11-26T01:36:13.795Z,7.30
2022-11-26T01:38:54.354Z,7.30
2022-11-26T01:41:33.007Z,7.30
2022-11-26T01:44:11.261Z,7.30
2022-11-26T01:46:46.440Z,7.30
2022-11-26T01:52:21.739Z,7.30
2022-11-26T01:57:44.094Z,7.40
2022-11-26T02:00:31.369Z,7.30
2022-11-26T02:03:06.999Z,7.30
2022-11-26T02:14:37.731Z,7.40
2022-11-26T02:17:19.508Z,7.50
2022-11-26T02:20:11.357Z,7.50
2022-11-26T02:23:05.589Z,7.50
2022-11-26T02:25:55.188Z,7.50
2022-11-26T02:28:58.197Z,7.50
2022-11-26T02:31:44.507Z,7.50
2022-11-26T02:34:24.442Z,7.50
2022-11-26T02:37:22.709Z,7.50
2022-11-26T02:39:59.955Z,7.50
2022-11-26T02:42:32.157Z,7.60
2022-11-26T02:45:07.367Z,7.60
2022-11-26T02:47:44.609Z,7.60
2022-11-26T02:50:17.799Z,7.60
2022-11-26T02:53:10.712Z,7.50
2022-11-26T02:56:05.907Z,7.50
2022-11-26T02:58:51.989Z,7.50
2022-11-26T03:01:32.225Z,7.60
2022-11-26T03:04:21.017Z,7.50
2022-11-26T03:07:05.574Z,7.60
2022-11-26T03:09:51.188Z,7.60
2022-11-26T03:12:35.899Z,7.60
2022-11-26T03:15:10.367Z,7.60
2022-11-26T03:17:44.669Z,7.70
2022-11-26T03:20:20.505Z,7.70
2022-11-26T03:23:11.086Z,7.70
2022-11-26T03:28:40.389Z,7.70
2022-11-26T03:31:28.454Z,7.70
2022-11-26T03:33:58.305Z,7.70
2022-11-26T03:36:31.530Z,7.70
2022-11-26T03:39:04.605Z,7.70
2022-11-26T03:41:36.919Z,7.70
2022-11-26T03:44:25.869Z,7.70
2022-11-26T03:47:02.348Z,7.70
2022-11-26T03:49:33.639Z,7.70
2022-11-26T03:55:22.847Z,7.60
2022-11-26T03:58:15.161Z,7.70
2022-11-26T04:00:50.544Z,7.70
2022-11-26T04:03:30.959Z,7.70
2022-11-26T04:06:11.071Z,7.70
2022-11-26T04:08:58.412Z,7.70
2022-11-26T04:11:33.394Z,7.70
2022-11-26T04:14:06.785Z,7.70
2022-11-26T04:16:40.817Z,7.70
2022-11-26T04:19:35.447Z,7.50
2022-11-26T04:22:18.501Z,7.60
2022-11-26T04:27:59.625Z,7.60
2022-11-26T04:30:43.980Z,7.70
2022-11-26T04:33:29.905Z,7.70
2022-11-26T04:36:02.432Z,7.60
2022-11-26T04:38:45.816Z,7.60
2022-11-26T04:41:31.376Z,7.60
2022-11-26T04:44:08.173Z,7.60
2022-11-26T04:46:40.385Z,7.60
2022-11-26T04:49:17.466Z,7.60
2022-11-26T04:51:59.369Z,7.60
2022-11-26T04:54:34.205Z,7.70
2022-11-26T04:57:24.196Z,7.70
2022-11-26T05:00:00.673Z,7.70
2022-11-26T05:02:33.001Z,7.70
2022-11-26T05:05:03.975Z,7.70
2022-11-26T05:07:35.884Z,7.60
2022-11-26T05:10:13.231Z,7.60
2022-11-26T05:13:06.137Z,7.60
2022-11-26T05:15:44.752Z,7.60
2022-11-26T05:18:19.473Z,7.60
2022-11-26T05:20:56.296Z,7.50
2022-11-26T05:23:31.127Z,7.50
2022-11-26T05:29:14.308Z,7.50
2022-11-26T05:31:59.392Z,7.50
2022-11-26T05:34:34.315Z,7.40
2022-11-26T05:37:03.583Z,7.30
2022-11-26T05:39:42.625Z,7.30
2022-11-26T05:42:30.784Z,7.30
2022-11-26T05:45:06.957Z,7.30
2022-11-26T05:47:46.456Z,7.30
2022-11-26T05:50:25.068Z,7.30
2022-11-26T05:52:57.593Z,7.30
2022-11-26T05:55:41.994Z,7.30
2022-11-26T05:58:20.714Z,7.20
2022-11-26T06:01:05.185Z,7.20
2022-11-26T06:03:36.750Z,7.20
2022-11-26T06:06:17.265Z,7.20
2022-11-26T06:08:48.293Z,7.20
2022-11-26T06:11:27.410Z,7.20
2022-11-26T06:14:16.060Z,7.20
2022-11-26T06:17:49.334Z,7.20
2022-11-26T06:20:35.084Z,7.20
2022-11-26T06:23:20.229Z,7.20
2022-11-26T06:25:59.813Z,7.10
2022-11-26T06:28:44.055Z,7.10
2022-11-26T06:31:32.263Z,7.10
2022-11-26T06:34:13.125Z,7.20
2022-11-26T06:37:04.251Z,7.20
2022-11-26T06:39:34.547Z,7.20
2022-11-26T06:42:08.876Z,7.20
2022-11-26T06:44:55.918Z,7.20
2022-11-26T06:47:35.836Z,7.20
2022-11-26T06:50:17.935Z,7.20
2022-11-26T06:52:57.661Z,7.20
2022-11-26T06:55:37.310Z,7.30
2022-11-26T06:58:07.922Z,7.30
2022-11-26T07:00:45.408Z,7.30
2022-11-26T07:03:33.634Z,7.30
2022-11-26T07:06:10.093Z,7.30
2022-11-26T07:08:45.670Z,7.30
2022-11-26T07:11:37.955Z,7.30
2022-11-26T07:14:11.586Z,7.20
2022-11-26T07:17:13.310Z,7.20
2022-11-26T07:19:51.795Z,7.20
2022-11-26T07:22:40.572Z,7.20
2022-11-26T07:25:20.244Z,7.30
2022-11-26T07:31:09.139Z,7.20
2022-11-26T07:33:54.661Z,7.20
2022-11-26T07:36:31.011Z,7.20
2022-11-26T07:39:18.192Z,7.20
2022-11-26T07:48:00.451Z,7.40
2022-11-26T07:50:52.765Z,7.40
2022-11-26T07:53:27.150Z,7.40
2022-11-26T07:55:56.598Z,7.40
2022-11-26T07:58:53.611Z,7.50
2022-11-26T08:01:29.945Z,7.50
2022-11-26T08:04:12.573Z,7.50
2022-11-26T08:06:56.682Z,7.60
2022-11-26T08:09:44.369Z,7.50
2022-11-26T08:12:32.275Z,7.40
2022-11-26T08:15:07.924Z,7.40
2022-11-26T08:20:54.311Z,7.40
2022-11-26T08:23:38.376Z,7.50
2022-11-26T08:29:21.879Z,7.60
2022-11-26T08:32:06.736Z,7.60
2022-11-26T08:34:39.171Z,7.50
2022-11-26T08:37:21.895Z,7.70
2022-11-26T08:39:52.676Z,7.80
2022-11-26T08:42:24.310Z,7.90
2022-11-26T08:45:06.817Z,7.80
2022-11-26T08:47:46.433Z,7.90
2022-11-26T08:50:26.312Z,7.80
2022-11-26T08:53:03.385Z,7.80
2022-11-26T08:55:59.253Z,7.80
2022-11-26T08:58:51.740Z,7.80
2022-11-26T09:01:24.974Z,7.90
2022-11-26T09:07:08.492Z,8.10
2022-11-26T09:09:59.425Z,8.00
2022-11-26T09:12:36.714Z,8.10
2022-11-26T09:15:07.982Z,8.20
2022-11-26T09:17:49.124Z,8.20
2022-11-26T09:20:43.547Z,8.30
2022-11-26T09:23:26.837Z,8.30
2022-11-26T09:29:01.927Z,8.50
2022-11-26T09:31:31.959Z,8.60
2022-11-26T09:34:12.900Z,8.60
2022-11-26T09:36:53.781Z,8.70
2022-11-26T09:39:52.808Z,8.60
2022-11-26T09:42:39.939Z,8.60
2022-11-26T09:45:34.918Z,8.70
2022-11-26T09:48:21.762Z,8.70
2022-11-26T09:51:06.549Z,8.70
2022-11-26T09:53:49.129Z,8.70
2022-11-26T09:56:28.019Z,8.70
2022-11-26T09:59:03.731Z,8.70
2022-11-26T10:01:46.683Z,8.80
2022-11-26T10:04:35.653Z,8.80
2022-11-26T10:07:14.332Z,8.80
2022-11-26T10:09:54.918Z,8.80
2022-11-26T10:12:45.808Z,8.90
2022-11-26T10:15:48.099Z,8.80
2022-11-26T10:18:32.881Z,8.80
2022-11-26T10:21:57.186Z,8.90
2022-11-26T10:24:35.964Z,9.00
2022-11-26T10:27:27.708Z,9.10
2022-11-26T10:33:00.829Z,9.10
2022-11-26T10:35:37.785Z,9.10
2022-11-26T10:41:05.635Z,9.20
2022-11-26T10:43:46.538Z,9.30
2022-11-26T10:46:50.467Z,9.40
2022-11-26T10:49:29.150Z,9.40
2022-11-26T10:52:11.251Z,9.50
2022-11-26T10:57:35.308Z,9.60
2022-11-26T11:00:13.790Z,9.50
2022-11-26T11:03:08.046Z,9.50
2022-11-26T11:08:43.069Z,9.50
2022-11-26T11:11:27.706Z,9.60
2022-11-26T11:14:08.191Z,9.60
2022-11-26T11:16:49.209Z,9.60
2022-11-26T11:19:39.561Z,9.60
2022-11-26T11:22:24.097Z,9.60
2022-11-26T11:24:56.840Z,9.60
2022-11-26T11:27:37.487Z,9.70
2022-11-26T11:30:14.330Z,9.70
2022-11-26T11:33:00.370Z,9.80
2022-11-26T11:36:06.459Z,9.90
2022-11-26T11:39:02.290Z,10.00
2022-11-26T11:41:47.098Z,9.90
2022-11-26T11:45:04.210Z,10.00
2022-11-26T11:50:37.498Z,10.10
2022-11-26T11:53:32.676Z,10.00
2022-11-26T11:56:42.133Z,9.90
2022-11-26T11:59:41.260Z,9.80
2022-11-26T12:02:33.764Z,9.80
2022-11-26T12:05:21.308Z,9.80
2022-11-26T12:08:04.509Z,9.90
2022-11-26T12:13:33.507Z,9.70
2022-11-26T12:16:08.533Z,9.70
2022-11-26T12:19:08.852Z,9.80
2022-11-26T12:21:47.596Z,9.80
2022-11-26T12:27:20.715Z,9.70
2022-11-26T12:30:11.378Z,9.70
2022-11-26T12:32:46.270Z,9.60
2022-11-26T12:35:37.510Z,9.60
2022-11-26T12:38:19.717Z,9.60
2022-11-26T12:43:55.381Z,9.80
2022-11-26T12:46:37.641Z,9.90
2022-11-26T12:49:20.036Z,10.00
2022-11-26T12:52:12.917Z,10.00
2022-11-26T12:54:52.266Z,10.00
2022-11-26T12:57:26.399Z,10.10
2022-11-26T13:00:35.681Z,10.10
2022-11-26T13:03:18.989Z,10.20
2022-11-26T13:06:07.421Z,10.10
2022-11-26T13:08:54.241Z,10.10
2022-11-26T13:11:33.487Z,10.00
2022-11-26T13:14:12.597Z,10.00
2022-11-26T13:16:51.668Z,10.00
2022-11-26T13:19:36.967Z,10.00
2022-11-26T13:22:31.628Z,10.10
2022-11-26T13:25:36.516Z,10.10
2022-11-26T13:28:28.221Z,10.00
2022-11-26T13:31:07.190Z,10.10
2022-11-26T13:34:15.081Z,10.00
2022-11-26T13:37:19.574Z,10.00
2022-11-26T13:40:24.045Z,10.00
2022-11-26T13:43:17.651Z,10.00
2022-11-26T13:46:22.879Z,9.90
2022-11-26T13:49:00.877Z,10.00
2022-11-26T13:51:42.930Z,10.00
2022-11-26T13:54:25.811Z,10.10
2022-11-26T13:57:07.088Z,10.10
2022-11-26T14:00:14.765Z,10.10
2022-11-26T14:02:53.501Z,10.00
2022-11-26T14:08:54.031Z,9.90
2022-11-26T14:11:45.697Z,10.00
2022-11-26T14:14:37.970Z,9.90
2022-11-26T14:17:34.915Z,9.90
2022-11-26T14:20:23.247Z,9.90
2022-11-26T14:23:05.871Z,9.90
2022-11-26T14:25:51.889Z,9.90
2022-11-26T14:28:43.410Z,9.90
2022-11-26T14:31:21.698Z,9.90
2022-11-26T14:34:01.511Z,9.80
2022-11-26T14:36:40.419Z,9.80
2022-11-26T14:39:27.453Z,9.80
2022-11-26T14:42:15.958Z,9.80
2022-11-26T14:44:57.956Z,9.70
2022-11-26T14:47:41.045Z,9.70
2022-11-26T14:50:27.650Z,9.60
2022-11-26T14:53:14.987Z,9.60
2022-11-26T14:55:47.510Z,9.60
2022-11-26T14:58:33.461Z,9.60
2022-11-26T15:01:22.127Z,9.50
2022-11-26T15:04:02.928Z,9.50
2022-11-26T15:07:01.380Z,9.50
2022-11-26T15:09:48.856Z,9.40
2022-11-26T15:12:26.126Z,9.40
2022-11-26T15:15:03.771Z,9.40
2022-11-26T15:17:38.989Z,9.40
2022-11-26T15:20:28.366Z,9.40
2022-11-26T15:23:14.649Z,9.30
2022-11-26T15:26:24.965Z,9.20
2022-11-26T15:31:48.691Z,9.10
2022-11-26T15:34:32.225Z,9.00
2022-11-26T15:37:10.139Z,9.00
2022-11-26T15:39:48.370Z,9.00
2022-11-26T15:42:36.199Z,9.00
2022-11-26T15:48:51.630Z,8.90
2022-11-26T15:51:29.428Z,8.80
2022-11-26T15:54:07.730Z,8.80
2022-11-26T15:56:54.612Z,8.80
2022-11-26T15:59:41.168Z,8.70
2022-11-26T16:02:20.694Z,8.70
2022-11-26T16:04:54.634Z,8.70
2022-11-26T16:10:33.490Z,8.80
2022-11-26T16:13:21.645Z,8.80
2022-11-26T16:16:14.646Z,8.80
2022-11-26T16:18:48.529Z,8.80
2022-11-26T16:21:30.445Z,8.80
2022-11-26T16:24:12.356Z,8.80
2022-11-26T16:26:59.576Z,8.80
2022-11-26T16:29:35.259Z,8.80
2022-11-26T16:32:09.659Z,8.80
2022-11-26T16:34:41.500Z,8.80
2022-11-26T16:37:27.086Z,8.60
2022-11-26T16:40:22.128Z,8.80
2022-11-26T16:42:57.614Z,8.70
2022-11-26T16:45:37.370Z,8.70
2022-11-26T16:48:24.254Z,8.70
2022-11-26T16:51:17.229Z,8.60
2022-11-26T16:53:49.007Z,8.60
2022-11-26T16:56:23.726Z,8.50
2022-11-26T16:58:54.954Z,8.40
2022-11-26T17:01:42.773Z,8.40
2022-11-26T17:04:20.861Z,8.40
2022-11-26T17:07:11.255Z,8.30
2022-11-26T17:09:45.818Z,8.30
2022-11-26T17:12:27.423Z,8.20
2022-11-26T17:15:00.875Z,8.20
2022-11-26T17:17:49.965Z,8.10
2022-11-26T17:20:42.480Z,8.00
2022-11-26T17:23:21.859Z,8.00
2022-11-26T17:25:53.168Z,8.00
2022-11-26T17:28:33.830Z,7.90
2022-11-26T17:31:07.127Z,7.80
2022-11-26T17:33:41.008Z,7.80
2022-11-26T17:36:47.736Z,7.70
2022-11-26T17:39:29.364Z,7.70
2022-11-26T17:42:14.315Z,7.60
2022-11-26T17:44:45.059Z,7.60
2022-11-26T17:47:23.125Z,7.60
2022-11-26T17:49:54.953Z,7.60
2022-11-26T17:52:40.528Z,7.50
2022-11-26T17:55:41.975Z,7.50
2022-11-26T17:58:21.219Z,7.50
2022-11-26T18:00:54.599Z,7.40
2022-11-26T18:03:51.614Z,7.40
2022-11-26T18:06:37.810Z,7.40
2022-11-26T18:09:07.888Z,7.40
2022-11-26T18:11:52.697Z,7.30
2022-11-26T18:14:41.328Z,7.20
2022-11-26T18:17:34.622Z,7.20
2022-11-26T18:20:21.165Z,7.10
2022-11-26T18:22:53.645Z,7.10
2022-11-26T18:25:26.136Z,7.10
2022-11-26T18:28:09.650Z,7.10
2022-11-26T18:30:53.365Z,7.10
2022-11-26T18:33:26.931Z,7.00
2022-11-26T18:36:06.641Z,7.00
2022-11-26T18:38:38.500Z,6.90
2022-11-26T18:41:19.889Z,6.90
2022-11-26T18:44:12.051Z,6.80
2022-11-26T18:47:08.075Z,6.80
2022-11-26T18:49:57.137Z,6.80
2022-11-26T18:52:33.891Z,6.80
2022-11-26T18:55:24.624Z,6.70
2022-11-26T18:58:05.286Z,6.70
2022-11-26T19:00:40.778Z,6.70
2022-11-26T19:03:45.900Z,6.70
2022-11-26T19:06:20.769Z,6.70
2022-11-26T19:08:58.902Z,6.50
2022-11-26T19:11:39.008Z,6.50
2022-11-26T19:14:11.240Z,6.50
2022-11-26T19:16:45.465Z,6.40
2022-11-26T19:19:35.239Z,6.40
2022-11-26T19:22:06.852Z,6.40
2022-11-26T19:24:45.250Z,6.30
2022-11-26T19:30:04.760Z,6.20
2022-11-26T19:32:53.859Z,6.20
2022-11-26T19:35:32.291Z,6.20
2022-11-26T19:38:26.540Z,6.10
2022-11-26T19:41:05.089Z,6.10
2022-11-26T19:43:47.171Z,6.00
2022-11-26T19:46:26.743Z,6.10
2022-11-26T19:49:06.690Z,6.00
2022-11-26T19:55:06.210Z,6.00
2022-11-26T19:57:50.220Z,5.90
2022-11-26T20:00:29.156Z,5.90
2022-11-26T20:03:14.868Z,6.00
2022-11-26T20:05:57.788Z,6.00
2022-11-26T20:08:40.619Z,5.90
2022-11-26T20:11:15.018Z,6.00
2022-11-26T20:16:48.362Z,5.90
2022-11-26T20:22:26.691Z,5.90
2022-11-26T20:25:17.790Z,5.90
2022-11-26T20:27:49.858Z,5.90
2022-11-26T20:30:23.607Z,5.80
2022-11-26T20:33:03.820Z,5.80
2022-11-26T20:35:48.801Z,5.80
2022-11-26T20:38:33.290Z,5.70
2022-11-26T20:41:11.645Z,5.70
2022-11-26T20:43:45.460Z,5.80
2022-11-26T20:49:18.510Z,5.70
2022-11-26T20:51:58.629Z,5.60
2022-11-26T20:54:30.855Z,5.60
2022-11-26T20:57:17.245Z,5.50
2022-11-26T20:59:53.251Z,5.50
2022-11-26T21:02:25.435Z,5.50
2022-11-26T21:05:04.771Z,5.40
2022-11-26T21:07:39.814Z,5.30
2022-11-26T21:10:11.812Z,5.30
2022-11-26T21:12:53.099Z,5.40
2022-11-26T21:15:24.941Z,5.40
2022-11-26T21:17:58.671Z,5.40
2022-11-26T21:20:38.852Z,5.40
2022-11-26T21:23:18.459Z,5.40
2022-11-26T21:25:53.778Z,5.40
2022-11-26T21:28:35.170Z,5.40
2022-11-26T21:31:12.320Z,5.40
2022-11-26T21:33:59.809Z,5.40
2022-11-26T21:36:40.118Z,5.30
2022-11-26T21:39:10.216Z,5.30
2022-11-26T21:41:43.009Z,5.30
2022-11-26T21:44:40.149Z,5.20
2022-11-26T21:47:17.419Z,5.20
2022-11-26T21:49:48.026Z,5.30
2022-11-26T21:52:21.211Z,5.20
2022-11-26T21:55:03.848Z,5.10
2022-11-26T21:57:37.097Z,5.10
2022-11-26T22:00:40.346Z,5.00
2022-11-26T22:03:27.010Z,5.00
2022-11-26T22:06:14.049Z,4.90
2022-11-26T22:08:45.731Z,4.90
2022-11-26T22:11:16.776Z,4.90
2022-11-26T22:13:54.845Z,4.90
2022-11-26T22:16:31.297Z,4.90
2022-11-26T22:19:15.819Z,4.80
2022-11-26T22:22:04.128Z,4.80
2022-11-26T22:24:38.691Z,4.70
2022-11-26T22:27:11.496Z,4.70
2022-11-26T22:29:51.750Z,4.70
2022-11-26T22:32:31.842Z,4.70
2022-11-26T22:35:11.500Z,4.70
2022-11-26T22:38:02.847Z,4.60
2022-11-26T22:40:51.455Z,4.70
2022-11-26T22:43:25.009Z,4.70
2022-11-26T22:46:14.232Z,4.70
2022-11-26T22:49:06.295Z,4.70
2022-11-26T22:52:08.019Z,4.60
2022-11-26T22:54:50.049Z,4.60
2022-11-26T22:57:27.209Z,4.60
2022-11-26T23:00:16.939Z,4.60
2022-11-26T23:02:48.846Z,4.60
2022-11-26T23:05:22.550Z,4.60
2022-11-26T23:07:59.412Z,4.60
2022-11-26T23:10:48.940Z,4.50
2022-11-26T23:13:20.606Z,4.60
2022-11-26T23:16:23.863Z,4.50
2022-11-26T23:18:56.099Z,4.50
2022-11-26T23:21:34.370Z,4.50
2022-11-26T23:24:03.965Z,4.50
2022-11-26T23:26:36.286Z,4.50
2022-11-26T23:29:20.935Z,4.50
2022-11-26T23:32:39.009Z,4.40
2022-11-26T23:35:22.568Z,4.40
2022-11-26T23:38:10.530Z,4.40
2022-11-26T23:40:45.758Z,4.40
2022-11-26T23:43:18.209Z,4.40
2022-11-26T23:45:55.509Z,4.40
2022-11-26T23:48:28.605Z,4.40
2022-11-26T23:51:05.249Z,4.30
2022-11-26T23:53:41.410Z,4.30
2022-11-26T23:56:16.933Z,4.30
2022-11-26T23:58:59.349Z,4.30
